sensor_id;sensor_type;location;lat;lon;timestamp;pressure;altitude;pressure_sealevel;temperature;humidity
9335;BME280;4706;41.844;26.082;2023-02-27T00:02:20;100373.91;;;16.91;61.60
9335;BME280;4706;41.844;26.082;2023-02-27T00:04:46;100337.34;;;16.89;61.64
9335;BME280;4706;41.844;26.082;2023-02-27T00:07:11;100327.50;;;16.92;61.17
9335;BME280;4706;41.844;26.082;2023-02-27T00:09:37;100324.13;;;16.98;60.82
9335;BME280;4706;41.844;26.082;2023-02-27T00:12:04;100354.38;;;17.00;61.27
9335;BME280;4706;41.844;26.082;2023-02-27T00:14:29;100353.19;;;17.01;62.14
9335;BME280;4706;41.844;26.082;2023-02-27T00:16:55;100342.91;;;16.89;62.88
9335;BME280;4706;41.844;26.082;2023-02-27T00:19:21;100340.69;;;16.95;63.01
9335;BME280;4706;41.844;26.082;2023-02-27T00:21:46;100346.50;;;16.90;62.42
9335;BME280;4706;41.844;26.082;2023-02-27T00:24:12;100351.91;;;16.98;62.81
9335;BME280;4706;41.844;26.082;2023-02-27T00:26:38;100349.94;;;16.99;63.20
9335;BME280;4706;41.844;26.082;2023-02-27T00:29:04;100320.34;;;16.79;63.48
9335;BME280;4706;41.844;26.082;2023-02-27T00:31:30;100328.00;;;16.82;63.42
9335;BME280;4706;41.844;26.082;2023-02-27T00:33:56;100319.66;;;16.82;62.89
9335;BME280;4706;41.844;26.082;2023-02-27T00:36:22;100306.22;;;16.71;62.68
9335;BME280;4706;41.844;26.082;2023-02-27T00:38:47;100331.78;;;17.02;61.11
9335;BME280;4706;41.844;26.082;2023-02-27T00:41:13;100339.53;;;17.08;60.75
9335;BME280;4706;41.844;26.082;2023-02-27T00:43:38;100342.31;;;17.08;61.12
9335;BME280;4706;41.844;26.082;2023-02-27T00:46:04;100344.28;;;17.08;61.83
9335;BME280;4706;41.844;26.082;2023-02-27T00:48:30;100330.03;;;17.09;61.40
9335;BME280;4706;41.844;26.082;2023-02-27T00:50:56;100316.25;;;17.13;62.00
9335;BME280;4706;41.844;26.082;2023-02-27T00:53:21;100303.94;;;17.14;62.04
9335;BME280;4706;41.844;26.082;2023-02-27T00:55:47;100311.94;;;17.15;62.04
9335;BME280;4706;41.844;26.082;2023-02-27T00:58:13;100336.06;;;17.11;62.70
9335;BME280;4706;41.844;26.082;2023-02-27T01:00:39;100344.38;;;17.11;62.85
9335;BME280;4706;41.844;26.082;2023-02-27T01:03:04;100350.38;;;17.13;62.52
9335;BME280;4706;41.844;26.082;2023-02-27T01:05:30;100338.91;;;17.15;62.49
9335;BME280;4706;41.844;26.082;2023-02-27T01:07:55;100333.56;;;17.22;62.10
9335;BME280;4706;41.844;26.082;2023-02-27T01:10:21;100323.56;;;17.05;62.12
9335;BME280;4706;41.844;26.082;2023-02-27T01:12:46;100345.31;;;17.15;62.31
9335;BME280;4706;41.844;26.082;2023-02-27T01:15:12;100344.78;;;17.26;62.03
9335;BME280;4706;41.844;26.082;2023-02-27T01:17:37;100347.03;;;17.20;62.62
9335;BME280;4706;41.844;26.082;2023-02-27T01:20:04;100345.09;;;17.08;63.02
9335;BME280;4706;41.844;26.082;2023-02-27T01:22:30;100351.66;;;17.04;63.26
9335;BME280;4706;41.844;26.082;2023-02-27T01:24:58;100347.75;;;16.92;63.51
9335;BME280;4706;41.844;26.082;2023-02-27T01:27:23;100348.25;;;16.82;64.20
9335;BME280;4706;41.844;26.082;2023-02-27T01:29:49;100333.53;;;16.82;64.62
9335;BME280;4706;41.844;26.082;2023-02-27T01:32:14;100366.75;;;16.90;64.59
9335;BME280;4706;41.844;26.082;2023-02-27T01:34:40;100382.72;;;16.81;65.75
9335;BME280;4706;41.844;26.082;2023-02-27T01:37:05;100359.53;;;16.65;66.45
9335;BME280;4706;41.844;26.082;2023-02-27T01:39:31;100363.00;;;16.62;66.89
9335;BME280;4706;41.844;26.082;2023-02-27T01:41:57;100358.84;;;16.68;66.78
9335;BME280;4706;41.844;26.082;2023-02-27T01:44:26;100367.53;;;16.66;66.32
9335;BME280;4706;41.844;26.082;2023-02-27T01:46:53;100389.53;;;16.84;66.65
9335;BME280;4706;41.844;26.082;2023-02-27T01:49:29;100368.81;;;16.81;66.39
9335;BME280;4706;41.844;26.082;2023-02-27T01:52:01;100376.13;;;16.86;64.96
9335;BME280;4706;41.844;26.082;2023-02-27T01:54:32;100383.16;;;16.95;64.73
9335;BME280;4706;41.844;26.082;2023-02-27T01:56:59;100382.22;;;17.04;63.94
9335;BME280;4706;41.844;26.082;2023-02-27T01:59:27;100385.00;;;17.04;64.22
9335;BME280;4706;41.844;26.082;2023-02-27T02:01:54;100381.44;;;16.91;65.17
9335;BME280;4706;41.844;26.082;2023-02-27T02:04:27;100396.03;;;16.88;65.92
9335;BME280;4706;41.844;26.082;2023-02-27T02:07:01;100384.69;;;16.93;64.76
9335;BME280;4706;41.844;26.082;2023-02-27T02:09:29;100391.16;;;16.97;64.71
9335;BME280;4706;41.844;26.082;2023-02-27T02:11:56;100385.25;;;16.98;64.50
9335;BME280;4706;41.844;26.082;2023-02-27T02:14:23;100379.22;;;17.09;63.97
9335;BME280;4706;41.844;26.082;2023-02-27T02:28:36;100382.59;;;16.90;65.84
9335;BME280;4706;41.844;26.082;2023-02-27T02:34:20;100395.78;;;16.81;67.00
9335;BME280;4706;41.844;26.082;2023-02-27T02:45:08;100389.06;;;17.06;65.36
9335;BME280;4706;41.844;26.082;2023-02-27T02:50:43;100390.34;;;17.09;65.90
9335;BME280;4706;41.844;26.082;2023-02-27T02:53:40;100382.81;;;17.09;65.67
9335;BME280;4706;41.844;26.082;2023-02-27T02:56:22;100373.69;;;17.09;65.53
9335;BME280;4706;41.844;26.082;2023-02-27T03:01:39;100377.25;;;17.09;65.61
9335;BME280;4706;41.844;26.082;2023-02-27T03:04:49;100383.63;;;17.10;65.48
9335;BME280;4706;41.844;26.082;2023-02-27T03:07:30;100380.16;;;17.13;65.57
9335;BME280;4706;41.844;26.082;2023-02-27T03:10:06;100384.53;;;17.14;65.88
9335;BME280;4706;41.844;26.082;2023-02-27T03:12:35;100391.72;;;17.15;65.90
9335;BME280;4706;41.844;26.082;2023-02-27T03:15:25;100390.22;;;17.17;65.88
9335;BME280;4706;41.844;26.082;2023-02-27T03:20:32;100398.91;;;17.16;66.01
9335;BME280;4706;41.844;26.082;2023-02-27T03:23:04;100396.94;;;17.16;66.29
9335;BME280;4706;41.844;26.082;2023-02-27T03:25:32;100409.66;;;17.17;66.04
9335;BME280;4706;41.844;26.082;2023-02-27T03:28:04;100395.66;;;17.14;66.07
9335;BME280;4706;41.844;26.082;2023-02-27T03:30:35;100408.97;;;17.20;65.91
9335;BME280;4706;41.844;26.082;2023-02-27T03:35:48;100413.72;;;17.20;66.28
9335;BME280;4706;41.844;26.082;2023-02-27T03:41:18;100411.63;;;17.17;66.02
9335;BME280;4706;41.844;26.082;2023-02-27T03:46:31;100410.47;;;17.18;65.95
9335;BME280;4706;41.844;26.082;2023-02-27T03:48:56;100412.34;;;17.14;66.27
9335;BME280;4706;41.844;26.082;2023-02-27T03:51:23;100397.06;;;17.08;65.69
9335;BME280;4706;41.844;26.082;2023-02-27T03:54:21;100406.78;;;17.14;65.90
9335;BME280;4706;41.844;26.082;2023-02-27T03:57:05;100394.41;;;17.11;65.95
9335;BME280;4706;41.844;26.082;2023-02-27T03:59:32;100418.69;;;17.14;66.19
9335;BME280;4706;41.844;26.082;2023-02-27T04:01:59;100406.91;;;17.05;65.97
9335;BME280;4706;41.844;26.082;2023-02-27T04:04:28;100425.66;;;17.08;66.23
9335;BME280;4706;41.844;26.082;2023-02-27T04:20:42;100458.06;;;16.92;67.15
9335;BME280;4706;41.844;26.082;2023-02-27T04:23:15;100450.53;;;16.92;66.83
9335;BME280;4706;41.844;26.082;2023-02-27T04:31:11;100434.69;;;16.81;67.75
9335;BME280;4706;41.844;26.082;2023-02-27T04:33:54;100458.41;;;16.90;68.14
9335;BME280;4706;41.844;26.082;2023-02-27T04:41:31;100457.13;;;16.88;67.72
9335;BME280;4706;41.844;26.082;2023-02-27T04:43:59;100460.72;;;16.88;68.33
9335;BME280;4706;41.844;26.082;2023-02-27T04:46:27;100457.69;;;16.81;68.12
9335;BME280;4706;41.844;26.082;2023-02-27T04:49:04;100469.41;;;16.87;68.00
9335;BME280;4706;41.844;26.082;2023-02-27T04:51:34;100475.44;;;16.89;68.09
9335;BME280;4706;41.844;26.082;2023-02-27T04:54:12;100467.69;;;16.82;68.76
9335;BME280;4706;41.844;26.082;2023-02-27T04:56:48;100477.84;;;16.78;69.30
9335;BME280;4706;41.844;26.082;2023-02-27T04:59:23;100484.44;;;16.73;69.59
9335;BME280;4706;41.844;26.082;2023-02-27T05:02:14;100477.91;;;16.69;69.17
9335;BME280;4706;41.844;26.082;2023-02-27T05:04:43;100497.31;;;16.78;68.35
9335;BME280;4706;41.844;26.082;2023-02-27T05:07:13;100496.13;;;16.79;68.49
9335;BME280;4706;41.844;26.082;2023-02-27T05:09:44;100509.47;;;16.86;68.37
9335;BME280;4706;41.844;26.082;2023-02-27T05:15:00;100522.56;;;16.85;68.55
9335;BME280;4706;41.844;26.082;2023-02-27T05:20:34;100544.97;;;16.80;69.09
9335;BME280;4706;41.844;26.082;2023-02-27T05:23:46;100553.19;;;16.77;69.46
9335;BME280;4706;41.844;26.082;2023-02-27T05:26:18;100556.69;;;16.86;69.13
9335;BME280;4706;41.844;26.082;2023-02-27T05:28:53;100567.19;;;16.80;69.08
9335;BME280;4706;41.844;26.082;2023-02-27T05:31:50;100557.47;;;16.74;69.06
9335;BME280;4706;41.844;26.082;2023-02-27T05:34:18;100572.09;;;16.95;67.56
9335;BME280;4706;41.844;26.082;2023-02-27T05:36:54;100583.66;;;16.85;68.24
9335;BME280;4706;41.844;26.082;2023-02-27T05:39:23;100589.81;;;16.91;68.15
9335;BME280;4706;41.844;26.082;2023-02-27T05:41:59;100603.47;;;16.96;68.06
9335;BME280;4706;41.844;26.082;2023-02-27T05:44:29;100597.59;;;16.97;68.02
9335;BME280;4706;41.844;26.082;2023-02-27T05:47:01;100607.66;;;17.02;67.71
9335;BME280;4706;41.844;26.082;2023-02-27T05:49:40;100626.84;;;16.95;68.23
9335;BME280;4706;41.844;26.082;2023-02-27T05:52:11;100629.19;;;16.93;68.44
9335;BME280;4706;41.844;26.082;2023-02-27T05:55:00;100631.75;;;17.10;68.05
9335;BME280;4706;41.844;26.082;2023-02-27T05:57:33;100637.00;;;17.12;67.94
9335;BME280;4706;41.844;26.082;2023-02-27T06:00:12;100646.59;;;17.14;67.91
9335;BME280;4706;41.844;26.082;2023-02-27T06:02:41;100639.13;;;17.39;66.75
9335;BME280;4706;41.844;26.082;2023-02-27T06:05:08;100642.97;;;17.47;66.51
9335;BME280;4706;41.844;26.082;2023-02-27T06:07:35;100648.88;;;17.45;66.65
9335;BME280;4706;41.844;26.082;2023-02-27T06:10:01;100642.16;;;17.46;66.88
9335;BME280;4706;41.844;26.082;2023-02-27T06:12:28;100653.72;;;17.48;67.04
9335;BME280;4706;41.844;26.082;2023-02-27T06:14:53;100638.31;;;17.51;66.85
9335;BME280;4706;41.844;26.082;2023-02-27T06:17:19;100647.28;;;17.57;66.80
9335;BME280;4706;41.844;26.082;2023-02-27T06:19:45;100642.16;;;17.59;66.60
9335;BME280;4706;41.844;26.082;2023-02-27T06:22:10;100648.53;;;17.59;66.57
9335;BME280;4706;41.844;26.082;2023-02-27T06:24:36;100651.09;;;17.64;66.51
9335;BME280;4706;41.844;26.082;2023-02-27T06:27:01;100646.34;;;17.65;66.34
9335;BME280;4706;41.844;26.082;2023-02-27T06:29:27;100648.78;;;17.79;65.75
9335;BME280;4706;41.844;26.082;2023-02-27T06:31:52;100652.94;;;17.72;66.26
9335;BME280;4706;41.844;26.082;2023-02-27T06:34:18;100645.56;;;17.77;66.55
9335;BME280;4706;41.844;26.082;2023-02-27T06:36:43;100655.06;;;17.76;66.96
9335;BME280;4706;41.844;26.082;2023-02-27T06:39:09;100660.75;;;17.79;66.74
9335;BME280;4706;41.844;26.082;2023-02-27T06:41:35;100659.72;;;17.84;66.93
9335;BME280;4706;41.844;26.082;2023-02-27T06:44:00;100659.94;;;17.91;66.72
9335;BME280;4706;41.844;26.082;2023-02-27T06:46:26;100665.28;;;17.96;66.81
9335;BME280;4706;41.844;26.082;2023-02-27T06:48:51;100666.88;;;17.97;67.10
9335;BME280;4706;41.844;26.082;2023-02-27T06:51:17;100668.84;;;18.09;66.28
9335;BME280;4706;41.844;26.082;2023-02-27T06:53:42;100683.78;;;18.16;66.03
9335;BME280;4706;41.844;26.082;2023-02-27T06:56:08;100677.91;;;18.18;66.26
9335;BME280;4706;41.844;26.082;2023-02-27T06:58:34;100685.31;;;18.26;65.70
9335;BME280;4706;41.844;26.082;2023-02-27T07:00:59;100696.91;;;18.28;65.92
9335;BME280;4706;41.844;26.082;2023-02-27T07:03:25;100701.44;;;18.20;66.35
9335;BME280;4706;41.844;26.082;2023-02-27T07:05:50;100695.03;;;18.20;66.01
9335;BME280;4706;41.844;26.082;2023-02-27T07:08:16;100713.50;;;18.25;66.27
9335;BME280;4706;41.844;26.082;2023-02-27T07:10:45;100714.66;;;18.24;65.99
9335;BME280;4706;41.844;26.082;2023-02-27T07:13:12;100720.69;;;18.26;66.47
9335;BME280;4706;41.844;26.082;2023-02-27T07:15:38;100719.09;;;18.25;66.60
9335;BME280;4706;41.844;26.082;2023-02-27T07:18:04;100718.13;;;18.33;66.82
9335;BME280;4706;41.844;26.082;2023-02-27T07:20:29;100718.16;;;18.20;67.05
9335;BME280;4706;41.844;26.082;2023-02-27T07:22:55;100717.00;;;18.22;68.12
9335;BME280;4706;41.844;26.082;2023-02-27T07:25:21;100708.78;;;18.13;68.41
9335;BME280;4706;41.844;26.082;2023-02-27T07:27:46;100724.16;;;18.23;67.89
9335;BME280;4706;41.844;26.082;2023-02-27T07:30:14;100723.13;;;18.27;68.18
9335;BME280;4706;41.844;26.082;2023-02-27T07:32:39;100722.66;;;18.37;67.67
9335;BME280;4706;41.844;26.082;2023-02-27T07:35:06;100731.69;;;18.34;67.84
9335;BME280;4706;41.844;26.082;2023-02-27T07:37:31;100735.19;;;18.31;62.45
9335;BME280;4706;41.844;26.082;2023-02-27T07:39:57;100732.63;;;18.26;58.52
9335;BME280;4706;41.844;26.082;2023-02-27T07:42:23;100724.97;;;18.23;55.88
9335;BME280;4706;41.844;26.082;2023-02-27T07:44:48;100718.97;;;18.21;54.46
9335;BME280;4706;41.844;26.082;2023-02-27T07:47:13;100726.03;;;18.18;54.70
9335;BME280;4706;41.844;26.082;2023-02-27T07:49:39;100704.09;;;18.05;54.24
9335;BME280;4706;41.844;26.082;2023-02-27T07:52:04;100720.94;;;17.96;55.27
9335;BME280;4706;41.844;26.082;2023-02-27T07:54:32;100712.94;;;17.94;55.57
9335;BME280;4706;41.844;26.082;2023-02-27T07:56:58;100716.88;;;18.06;55.18
9335;BME280;4706;41.844;26.082;2023-02-27T07:59:23;100715.97;;;18.02;55.27
9335;BME280;4706;41.844;26.082;2023-02-27T08:01:49;100723.94;;;18.15;54.60
9335;BME280;4706;41.844;26.082;2023-02-27T08:04:14;100716.63;;;18.11;55.60
9335;BME280;4706;41.844;26.082;2023-02-27T08:06:40;100711.06;;;18.11;55.98
9335;BME280;4706;41.844;26.082;2023-02-27T08:09:06;100714.41;;;18.16;55.93
9335;BME280;4706;41.844;26.082;2023-02-27T08:11:31;100720.94;;;18.20;55.78
9335;BME280;4706;41.844;26.082;2023-02-27T08:13:57;100728.34;;;18.29;56.36
9335;BME280;4706;41.844;26.082;2023-02-27T08:16:22;100712.78;;;18.40;55.35
9335;BME280;4706;41.844;26.082;2023-02-27T08:18:48;100689.19;;;18.50;54.74
9335;BME280;4706;41.844;26.082;2023-02-27T08:21:13;100719.78;;;18.86;54.77
9335;BME280;4706;41.844;26.082;2023-02-27T08:23:39;100718.34;;;19.05;54.71
9335;BME280;4706;41.844;26.082;2023-02-27T08:26:05;100713.50;;;19.17;54.73
9335;BME280;4706;41.844;26.082;2023-02-27T08:28:30;100712.81;;;19.36;54.75
9335;BME280;4706;41.844;26.082;2023-02-27T08:30:56;100719.50;;;19.48;54.48
9335;BME280;4706;41.844;26.082;2023-02-27T08:33:23;100712.50;;;19.54;54.59
9335;BME280;4706;41.844;26.082;2023-02-27T08:35:48;100715.25;;;19.66;54.27
9335;BME280;4706;41.844;26.082;2023-02-27T08:38:14;100709.31;;;19.83;55.26
9335;BME280;4706;41.844;26.082;2023-02-27T08:40:39;100710.19;;;20.19;55.27
9335;BME280;4706;41.844;26.082;2023-02-27T08:43:05;100709.78;;;20.36;55.00
9335;BME280;4706;41.844;26.082;2023-02-27T08:45:30;100722.41;;;20.46;54.76
9335;BME280;4706;41.844;26.082;2023-02-27T08:47:56;100713.13;;;20.58;55.52
9335;BME280;4706;41.844;26.082;2023-02-27T08:50:21;100710.19;;;20.70;54.80
9335;BME280;4706;41.844;26.082;2023-02-27T08:52:47;100717.91;;;20.96;54.38
9335;BME280;4706;41.844;26.082;2023-02-27T08:55:13;100710.50;;;21.04;52.87
9335;BME280;4706;41.844;26.082;2023-02-27T08:57:39;100722.16;;;21.09;52.95
9335;BME280;4706;41.844;26.082;2023-02-27T09:00:05;100721.66;;;21.23;52.06
9335;BME280;4706;41.844;26.082;2023-02-27T09:02:31;100729.31;;;21.26;51.88
9335;BME280;4706;41.844;26.082;2023-02-27T09:04:57;100734.59;;;21.31;51.72
9335;BME280;4706;41.844;26.082;2023-02-27T09:07:23;100737.31;;;21.28;51.02
9335;BME280;4706;41.844;26.082;2023-02-27T09:09:49;100739.19;;;21.20;51.68
9335;BME280;4706;41.844;26.082;2023-02-27T09:12:14;100742.03;;;21.24;51.54
9335;BME280;4706;41.844;26.082;2023-02-27T09:14:40;100745.63;;;21.40;50.67
9335;BME280;4706;41.844;26.082;2023-02-27T09:17:06;100733.78;;;21.50;50.89
9335;BME280;4706;41.844;26.082;2023-02-27T09:19:31;100734.19;;;21.49;50.33
9335;BME280;4706;41.844;26.082;2023-02-27T09:21:57;100744.84;;;21.43;50.08
9335;BME280;4706;41.844;26.082;2023-02-27T09:24:23;100739.25;;;21.43;50.28
9335;BME280;4706;41.844;26.082;2023-02-27T09:26:49;100737.91;;;21.56;50.12
9335;BME280;4706;41.844;26.082;2023-02-27T09:29:14;100744.06;;;21.66;49.60
9335;BME280;4706;41.844;26.082;2023-02-27T09:31:40;100741.06;;;21.55;49.67
9335;BME280;4706;41.844;26.082;2023-02-27T09:34:06;100738.34;;;21.58;50.23
9335;BME280;4706;41.844;26.082;2023-02-27T09:36:32;100733.50;;;21.78;49.29
9335;BME280;4706;41.844;26.082;2023-02-27T09:38:58;100743.38;;;21.95;49.06
9335;BME280;4706;41.844;26.082;2023-02-27T09:41:31;100738.38;;;22.04;48.44
9335;BME280;4706;41.844;26.082;2023-02-27T09:44:00;100741.41;;;21.96;48.43
9335;BME280;4706;41.844;26.082;2023-02-27T09:46:27;100744.06;;;21.89;48.08
9335;BME280;4706;41.844;26.082;2023-02-27T09:48:56;100739.72;;;21.91;48.56
9335;BME280;4706;41.844;26.082;2023-02-27T09:51:23;100735.72;;;21.92;48.41
9335;BME280;4706;41.844;26.082;2023-02-27T09:53:52;100736.06;;;21.87;48.48
9335;BME280;4706;41.844;26.082;2023-02-27T09:56:27;100739.41;;;21.73;48.67
9335;BME280;4706;41.844;26.082;2023-02-27T09:59:12;100742.91;;;21.47;48.86
9335;BME280;4706;41.844;26.082;2023-02-27T10:01:43;100737.72;;;21.46;49.17
9335;BME280;4706;41.844;26.082;2023-02-27T10:04:22;100736.22;;;21.52;48.78
9335;BME280;4706;41.844;26.082;2023-02-27T10:07:06;100733.88;;;21.77;49.01
9335;BME280;4706;41.844;26.082;2023-02-27T10:15:30;100741.03;;;21.74;49.11
9335;BME280;4706;41.844;26.082;2023-02-27T10:18:04;100744.78;;;21.82;48.89
9335;BME280;4706;41.844;26.082;2023-02-27T10:20:33;100740.59;;;21.72;47.86
9335;BME280;4706;41.844;26.082;2023-02-27T10:23:05;100748.88;;;21.65;47.68
9335;BME280;4706;41.844;26.082;2023-02-27T10:25:40;100738.66;;;21.53;48.66
9335;BME280;4706;41.844;26.082;2023-02-27T10:28:12;100745.84;;;21.54;47.96
9335;BME280;4706;41.844;26.082;2023-02-27T10:30:38;100750.09;;;21.45;49.25
9335;BME280;4706;41.844;26.082;2023-02-27T10:33:13;100741.63;;;21.41;49.11
9335;BME280;4706;41.844;26.082;2023-02-27T10:35:43;100742.19;;;21.31;49.32
9335;BME280;4706;41.844;26.082;2023-02-27T10:40:54;100737.06;;;21.33;48.87
9335;BME280;4706;41.844;26.082;2023-02-27T10:43:21;100740.19;;;21.31;48.65
9335;BME280;4706;41.844;26.082;2023-02-27T10:45:47;100741.25;;;21.23;48.15
9335;BME280;4706;41.844;26.082;2023-02-27T10:48:13;100738.81;;;21.22;48.07
9335;BME280;4706;41.844;26.082;2023-02-27T10:50:45;100726.38;;;21.19;48.28
9335;BME280;4706;41.844;26.082;2023-02-27T10:53:22;100738.94;;;21.09;48.28
9335;BME280;4706;41.844;26.082;2023-02-27T10:56:03;100730.56;;;21.09;48.21
9335;BME280;4706;41.844;26.082;2023-02-27T10:58:31;100733.75;;;21.08;48.66
9335;BME280;4706;41.844;26.082;2023-02-27T11:01:00;100726.16;;;21.08;49.37
9335;BME280;4706;41.844;26.082;2023-02-27T11:03:34;100721.00;;;21.10;49.45
9335;BME280;4706;41.844;26.082;2023-02-27T11:11:38;100715.50;;;21.14;48.15
9335;BME280;4706;41.844;26.082;2023-02-27T11:14:24;100717.09;;;21.15;47.23
9335;BME280;4706;41.844;26.082;2023-02-27T11:16:52;100716.38;;;21.18;47.66
9335;BME280;4706;41.844;26.082;2023-02-27T11:19:36;100716.06;;;21.23;47.65
9335;BME280;4706;41.844;26.082;2023-02-27T11:22:12;100713.94;;;21.17;47.34
9335;BME280;4706;41.844;26.082;2023-02-27T11:24:38;100720.84;;;21.23;47.33
9335;BME280;4706;41.844;26.082;2023-02-27T11:27:20;100722.38;;;21.20;47.63
9335;BME280;4706;41.844;26.082;2023-02-27T11:30:01;100719.25;;;21.22;48.22
9335;BME280;4706;41.844;26.082;2023-02-27T11:32:48;100718.78;;;21.20;48.13
9335;BME280;4706;41.844;26.082;2023-02-27T11:35:25;100720.47;;;21.24;48.84
9335;BME280;4706;41.844;26.082;2023-02-27T11:37:54;100711.94;;;21.17;48.94
9335;BME280;4706;41.844;26.082;2023-02-27T11:40:29;100717.19;;;21.19;49.29
9335;BME280;4706;41.844;26.082;2023-02-27T11:42:59;100715.69;;;21.25;49.38
9335;BME280;4706;41.844;26.082;2023-02-27T11:45:40;100711.19;;;21.20;49.43
9335;BME280;4706;41.844;26.082;2023-02-27T11:48:36;100710.78;;;21.18;49.31
9335;BME280;4706;41.844;26.082;2023-02-27T11:56:19;100716.44;;;21.41;49.03
9335;BME280;4706;41.844;26.082;2023-02-27T12:01:46;100714.28;;;21.54;46.88
9335;BME280;4706;41.844;26.082;2023-02-27T12:07:25;100709.47;;;21.77;46.38
9335;BME280;4706;41.844;26.082;2023-02-27T12:10:25;100723.88;;;21.76;46.32
9335;BME280;4706;41.844;26.082;2023-02-27T12:13:08;100729.34;;;21.69;46.11
9335;BME280;4706;41.844;26.082;2023-02-27T12:15:43;100728.25;;;21.54;46.67
9335;BME280;4706;41.844;26.082;2023-02-27T12:18:15;100720.13;;;21.45;47.30
9335;BME280;4706;41.844;26.082;2023-02-27T12:20:54;100736.66;;;21.54;46.48
9335;BME280;4706;41.844;26.082;2023-02-27T12:23:34;100724.66;;;21.53;46.96
9335;BME280;4706;41.844;26.082;2023-02-27T12:26:07;100724.53;;;21.46;46.26
9335;BME280;4706;41.844;26.082;2023-02-27T12:31:18;100735.84;;;21.53;46.30
9335;BME280;4706;41.844;26.082;2023-02-27T12:34:11;100741.38;;;21.50;47.13
9335;BME280;4706;41.844;26.082;2023-02-27T12:36:39;100750.59;;;21.50;47.24
9335;BME280;4706;41.844;26.082;2023-02-27T12:39:18;100750.44;;;21.43;46.40
9335;BME280;4706;41.844;26.082;2023-02-27T12:42:24;100751.94;;;21.37;47.19
9335;BME280;4706;41.844;26.082;2023-02-27T12:50:37;100737.56;;;21.19;48.08
9335;BME280;4706;41.844;26.082;2023-02-27T12:53:24;100756.13;;;21.08;48.80
9335;BME280;4706;41.844;26.082;2023-02-27T12:56:05;100747.19;;;21.02;48.83
9335;BME280;4706;41.844;26.082;2023-02-27T12:58:52;100745.97;;;21.00;48.71
9335;BME280;4706;41.844;26.082;2023-02-27T13:01:55;100739.41;;;20.92;49.09
9335;BME280;4706;41.844;26.082;2023-02-27T13:04:33;100742.28;;;20.96;48.87
9335;BME280;4706;41.844;26.082;2023-02-27T13:07:17;100732.78;;;21.00;48.96
9335;BME280;4706;41.844;26.082;2023-02-27T13:09:49;100744.47;;;21.06;49.36
9335;BME280;4706;41.844;26.082;2023-02-27T13:15:14;100731.97;;;21.19;47.98
9335;BME280;4706;41.844;26.082;2023-02-27T13:18:12;100733.72;;;21.27;48.12
9335;BME280;4706;41.844;26.082;2023-02-27T13:20:39;100731.91;;;21.35;47.87
9335;BME280;4706;41.844;26.082;2023-02-27T13:23:32;100732.78;;;21.39;47.69
9335;BME280;4706;41.844;26.082;2023-02-27T13:26:00;100730.44;;;21.41;47.98
9335;BME280;4706;41.844;26.082;2023-02-27T13:28:30;100737.16;;;21.37;47.25
9335;BME280;4706;41.844;26.082;2023-02-27T13:36:41;100737.78;;;21.30;48.29
9335;BME280;4706;41.844;26.082;2023-02-27T13:39:36;100737.72;;;21.26;48.15
9335;BME280;4706;41.844;26.082;2023-02-27T13:42:03;100746.03;;;21.23;48.32
9335;BME280;4706;41.844;26.082;2023-02-27T13:44:39;100738.97;;;21.29;48.39
9335;BME280;4706;41.844;26.082;2023-02-27T13:49:53;100740.59;;;21.10;48.28
9335;BME280;4706;41.844;26.082;2023-02-27T13:52:33;100754.13;;;21.08;49.26
9335;BME280;4706;41.844;26.082;2023-02-27T13:54:59;100745.22;;;21.03;48.86
9335;BME280;4706;41.844;26.082;2023-02-27T13:57:27;100771.47;;;20.98;49.40
9335;BME280;4706;41.844;26.082;2023-02-27T13:59:58;100759.47;;;20.98;48.81
9335;BME280;4706;41.844;26.082;2023-02-27T14:03:18;100757.16;;;21.00;49.17
9335;BME280;4706;41.844;26.082;2023-02-27T14:05:39;100761.03;;;20.95;49.62
9335;BME280;4706;41.844;26.082;2023-02-27T14:08:25;100762.13;;;20.91;49.43
9335;BME280;4706;41.844;26.082;2023-02-27T14:11:01;100750.50;;;20.89;49.60
9335;BME280;4706;41.844;26.082;2023-02-27T14:24:37;100776.47;;;20.89;47.98
9335;BME280;4706;41.844;26.082;2023-02-27T14:27:21;100778.00;;;20.86;49.35
9335;BME280;4706;41.844;26.082;2023-02-27T14:29:50;100768.47;;;20.88;49.85
9335;BME280;4706;41.844;26.082;2023-02-27T14:32:24;100791.81;;;20.95;50.22
9335;BME280;4706;41.844;26.082;2023-02-27T14:34:51;100791.66;;;20.88;50.65
9335;BME280;4706;41.844;26.082;2023-02-27T14:37:21;100785.97;;;20.84;50.18
9335;BME280;4706;41.844;26.082;2023-02-27T14:39:50;100801.88;;;20.80;49.90
9335;BME280;4706;41.844;26.082;2023-02-27T14:44:51;100804.50;;;20.73;50.50
9335;BME280;4706;41.844;26.082;2023-02-27T14:47:22;100811.19;;;20.69;50.49
9335;BME280;4706;41.844;26.082;2023-02-27T14:49:49;100800.97;;;20.60;49.99
9335;BME280;4706;41.844;26.082;2023-02-27T14:52:23;100823.00;;;20.62;50.45
9335;BME280;4706;41.844;26.082;2023-02-27T14:54:49;100822.00;;;20.54;50.79
9335;BME280;4706;41.844;26.082;2023-02-27T14:57:21;100827.03;;;20.49;51.31
9335;BME280;4706;41.844;26.082;2023-02-27T14:59:49;100833.53;;;20.53;51.39
9335;BME280;4706;41.844;26.082;2023-02-27T15:02:25;100837.88;;;20.50;50.79
9335;BME280;4706;41.844;26.082;2023-02-27T15:05:13;100843.59;;;20.42;51.21
9335;BME280;4706;41.844;26.082;2023-02-27T15:07:43;100843.44;;;20.34;51.61
9335;BME280;4706;41.844;26.082;2023-02-27T15:10:17;100838.41;;;20.24;51.77
9335;BME280;4706;41.844;26.082;2023-02-27T15:12:49;100840.28;;;20.20;52.00
9335;BME280;4706;41.844;26.082;2023-02-27T15:15:18;100848.91;;;20.15;52.40
9335;BME280;4706;41.844;26.082;2023-02-27T15:17:45;100858.84;;;20.12;53.21
9335;BME280;4706;41.844;26.082;2023-02-27T15:20:21;100858.56;;;20.02;53.43
9335;BME280;4706;41.844;26.082;2023-02-27T15:22:49;100865.66;;;19.99;53.75
9335;BME280;4706;41.844;26.082;2023-02-27T15:25:36;100871.75;;;19.89;54.40
9335;BME280;4706;41.844;26.082;2023-02-27T15:28:14;100874.34;;;19.82;55.16
9335;BME280;4706;41.844;26.082;2023-02-27T15:30:47;100877.41;;;19.77;55.40